sensor_id;sensor_type;location;lat;lon;timestamp;P1;durP1;ratioP1;P2;durP2;ratioP2
9248;SDS011;4660;41.768;26.198;2023-08-31T00:00:50;8.27;;;5.60;;
9248;SDS011;4660;41.768;26.198;2023-08-31T00:03:18;6.70;;;6.03;;
9248;SDS011;4660;41.768;26.198;2023-08-31T00:05:44;5.55;;;4.95;;
9248;SDS011;4660;41.768;26.198;2023-08-31T00:08:10;6.70;;;5.90;;
9248;SDS011;4660;41.768;26.198;2023-08-31T00:10:38;6.88;;;5.53;;
9248;SDS011;4660;41.768;26.198;2023-08-31T00:13:05;6.45;;;5.50;;
9248;SDS011;4660;41.768;26.198;2023-08-31T00:15:34;7.30;;;5.32;;
9248;SDS011;4660;41.768;26.198;2023-08-31T00:18:00;10.80;;;6.25;;
9248;SDS011;4660;41.768;26.198;2023-08-31T00:20:29;6.93;;;5.43;;
9248;SDS011;4660;41.768;26.198;2023-08-31T00:22:55;7.38;;;5.88;;
9248;SDS011;4660;41.768;26.198;2023-08-31T00:25:21;8.73;;;6.25;;
9248;SDS011;4660;41.768;26.198;2023-08-31T00:27:47;7.75;;;6.88;;
9248;SDS011;4660;41.768;26.198;2023-08-31T00:30:13;9.77;;;5.78;;
9248;SDS011;4660;41.768;26.198;2023-08-31T00:32:40;6.47;;;5.72;;
9248;SDS011;4660;41.768;26.198;2023-08-31T00:35:08;8.98;;;5.82;;
9248;SDS011;4660;41.768;26.198;2023-08-31T00:37:34;10.45;;;6.45;;
9248;SDS011;4660;41.768;26.198;2023-08-31T00:39:59;8.80;;;6.25;;
9248;SDS011;4660;41.768;26.198;2023-08-31T00:42:25;7.85;;;5.93;;
9248;SDS011;4660;41.768;26.198;2023-08-31T00:44:51;9.80;;;6.78;;
9248;SDS011;4660;41.768;26.198;2023-08-31T00:47:16;8.88;;;6.60;;
9248;SDS011;4660;41.768;26.198;2023-08-31T00:49:42;8.00;;;6.18;;
9248;SDS011;4660;41.768;26.198;2023-08-31T00:52:08;8.68;;;6.07;;
9248;SDS011;4660;41.768;26.198;2023-08-31T00:54:34;6.45;;;5.82;;
9248;SDS011;4660;41.768;26.198;2023-08-31T00:57:01;10.60;;;5.68;;
9248;SDS011;4660;41.768;26.198;2023-08-31T00:59:26;9.65;;;6.03;;
9248;SDS011;4660;41.768;26.198;2023-08-31T01:10:10;7.28;;;6.00;;
9248;SDS011;4660;41.768;26.198;2023-08-31T01:12:42;8.35;;;5.75;;
9248;SDS011;4660;41.768;26.198;2023-08-31T01:15:12;7.20;;;5.18;;
9248;SDS011;4660;41.768;26.198;2023-08-31T01:17:41;8.80;;;5.57;;
9248;SDS011;4660;41.768;26.198;2023-08-31T01:20:11;8.50;;;5.80;;
9248;SDS011;4660;41.768;26.198;2023-08-31T01:25:26;6.53;;;5.70;;
9248;SDS011;4660;41.768;26.198;2023-08-31T01:27:52;10.15;;;6.07;;
9248;SDS011;4660;41.768;26.198;2023-08-31T01:30:18;6.80;;;5.60;;
9248;SDS011;4660;41.768;26.198;2023-08-31T01:32:44;5.57;;;5.00;;
9248;SDS011;4660;41.768;26.198;2023-08-31T01:38:14;6.68;;;5.95;;
9248;SDS011;4660;41.768;26.198;2023-08-31T01:41:03;6.47;;;5.40;;
9248;SDS011;4660;41.768;26.198;2023-08-31T01:43:32;7.85;;;5.57;;
9248;SDS011;4660;41.768;26.198;2023-08-31T01:45:58;8.27;;;5.55;;
9248;SDS011;4660;41.768;26.198;2023-08-31T01:48:25;9.27;;;6.95;;
9248;SDS011;4660;41.768;26.198;2023-08-31T01:50:51;8.20;;;6.35;;
9248;SDS011;4660;41.768;26.198;2023-08-31T01:53:16;8.38;;;7.47;;
9248;SDS011;4660;41.768;26.198;2023-08-31T01:55:42;8.55;;;6.80;;
9248;SDS011;4660;41.768;26.198;2023-08-31T01:58:07;9.38;;;6.63;;
9248;SDS011;4660;41.768;26.198;2023-08-31T02:00:33;10.98;;;6.40;;
9248;SDS011;4660;41.768;26.198;2023-08-31T02:03:00;8.13;;;6.32;;
9248;SDS011;4660;41.768;26.198;2023-08-31T02:05:26;6.80;;;6.10;;
9248;SDS011;4660;41.768;26.198;2023-08-31T02:07:52;11.30;;;6.97;;
9248;SDS011;4660;41.768;26.198;2023-08-31T02:10:18;9.70;;;6.60;;
9248;SDS011;4660;41.768;26.198;2023-08-31T02:12:43;8.20;;;6.88;;
9248;SDS011;4660;41.768;26.198;2023-08-31T02:15:09;10.85;;;6.88;;
9248;SDS011;4660;41.768;26.198;2023-08-31T02:17:35;9.35;;;6.90;;
9248;SDS011;4660;41.768;26.198;2023-08-31T02:20:01;12.65;;;7.00;;
9248;SDS011;4660;41.768;26.198;2023-08-31T02:22:30;12.45;;;7.00;;
9248;SDS011;4660;41.768;26.198;2023-08-31T02:24:56;8.82;;;6.43;;
9248;SDS011;4660;41.768;26.198;2023-08-31T02:27:22;8.60;;;6.85;;
9248;SDS011;4660;41.768;26.198;2023-08-31T02:29:47;9.20;;;7.10;;
9248;SDS011;4660;41.768;26.198;2023-08-31T02:32:13;10.65;;;7.53;;
9248;SDS011;4660;41.768;26.198;2023-08-31T02:34:38;10.30;;;7.20;;
9248;SDS011;4660;41.768;26.198;2023-08-31T02:37:04;7.57;;;6.88;;
9248;SDS011;4660;41.768;26.198;2023-08-31T02:39:29;8.45;;;7.50;;
9248;SDS011;4660;41.768;26.198;2023-08-31T02:41:55;7.82;;;6.90;;
9248;SDS011;4660;41.768;26.198;2023-08-31T02:44:20;11.75;;;7.72;;
9248;SDS011;4660;41.768;26.198;2023-08-31T02:46:46;12.15;;;7.43;;
9248;SDS011;4660;41.768;26.198;2023-08-31T02:49:12;11.90;;;7.05;;
9248;SDS011;4660;41.768;26.198;2023-08-31T02:51:37;11.93;;;7.22;;
9248;SDS011;4660;41.768;26.198;2023-08-31T02:54:03;11.93;;;6.78;;
9248;SDS011;4660;41.768;26.198;2023-08-31T02:56:28;7.75;;;6.88;;
9248;SDS011;4660;41.768;26.198;2023-08-31T02:58:54;11.07;;;7.75;;
9248;SDS011;4660;41.768;26.198;2023-08-31T03:01:20;8.88;;;7.28;;
9248;SDS011;4660;41.768;26.198;2023-08-31T03:03:45;11.45;;;7.43;;
9248;SDS011;4660;41.768;26.198;2023-08-31T03:06:11;12.57;;;7.38;;
9248;SDS011;4660;41.768;26.198;2023-08-31T03:08:37;8.23;;;7.22;;
9248;SDS011;4660;41.768;26.198;2023-08-31T03:11:04;10.50;;;7.90;;
9248;SDS011;4660;41.768;26.198;2023-08-31T03:13:30;9.65;;;7.80;;
9248;SDS011;4660;41.768;26.198;2023-08-31T03:15:56;12.98;;;7.65;;
9248;SDS011;4660;41.768;26.198;2023-08-31T03:18:22;8.15;;;7.35;;
9248;SDS011;4660;41.768;26.198;2023-08-31T03:20:48;8.25;;;7.07;;
9248;SDS011;4660;41.768;26.198;2023-08-31T03:23:14;9.48;;;7.30;;
9248;SDS011;4660;41.768;26.198;2023-08-31T03:25:40;11.60;;;7.57;;
9248;SDS011;4660;41.768;26.198;2023-08-31T03:30:57;11.25;;;7.50;;
9248;SDS011;4660;41.768;26.198;2023-08-31T03:33:23;8.45;;;7.28;;
9248;SDS011;4660;41.768;26.198;2023-08-31T03:35:48;8.23;;;7.32;;
9248;SDS011;4660;41.768;26.198;2023-08-31T03:38:14;9.18;;;6.95;;
9248;SDS011;4660;41.768;26.198;2023-08-31T03:40:39;10.73;;;8.15;;
9248;SDS011;4660;41.768;26.198;2023-08-31T03:43:05;11.00;;;7.95;;
9248;SDS011;4660;41.768;26.198;2023-08-31T03:45:30;9.18;;;7.68;;
9248;SDS011;4660;41.768;26.198;2023-08-31T03:47:56;10.95;;;8.27;;
9248;SDS011;4660;41.768;26.198;2023-08-31T03:50:22;9.85;;;7.50;;
9248;SDS011;4660;41.768;26.198;2023-08-31T03:52:47;12.13;;;8.55;;
9248;SDS011;4660;41.768;26.198;2023-08-31T03:55:13;13.52;;;7.78;;
9248;SDS011;4660;41.768;26.198;2023-08-31T03:57:38;9.73;;;7.55;;
9248;SDS011;4660;41.768;26.198;2023-08-31T04:00:04;7.72;;;6.70;;
9248;SDS011;4660;41.768;26.198;2023-08-31T04:02:34;10.27;;;7.90;;
9248;SDS011;4660;41.768;26.198;2023-08-31T04:05:00;7.68;;;6.88;;
9248;SDS011;4660;41.768;26.198;2023-08-31T04:07:26;9.15;;;6.93;;
9248;SDS011;4660;41.768;26.198;2023-08-31T04:09:51;13.75;;;8.00;;
9248;SDS011;4660;41.768;26.198;2023-08-31T04:12:17;10.30;;;8.27;;
9248;SDS011;4660;41.768;26.198;2023-08-31T04:14:42;10.85;;;9.38;;
9248;SDS011;4660;41.768;26.198;2023-08-31T04:17:08;13.88;;;9.07;;
9248;SDS011;4660;41.768;26.198;2023-08-31T04:19:34;12.15;;;7.80;;
9248;SDS011;4660;41.768;26.198;2023-08-31T04:21:59;16.88;;;8.93;;
9248;SDS011;4660;41.768;26.198;2023-08-31T04:24:25;11.65;;;7.95;;
9248;SDS011;4660;41.768;26.198;2023-08-31T04:26:52;10.05;;;8.23;;
9248;SDS011;4660;41.768;26.198;2023-08-31T04:29:17;11.23;;;7.65;;
9248;SDS011;4660;41.768;26.198;2023-08-31T04:31:43;9.90;;;7.90;;
9248;SDS011;4660;41.768;26.198;2023-08-31T04:34:08;10.30;;;7.03;;
9248;SDS011;4660;41.768;26.198;2023-08-31T04:36:34;12.35;;;7.43;;
9248;SDS011;4660;41.768;26.198;2023-08-31T04:38:59;10.80;;;7.28;;
9248;SDS011;4660;41.768;26.198;2023-08-31T04:41:25;10.27;;;7.45;;
9248;SDS011;4660;41.768;26.198;2023-08-31T04:43:50;11.50;;;7.72;;
9248;SDS011;4660;41.768;26.198;2023-08-31T04:46:16;11.73;;;7.68;;
9248;SDS011;4660;41.768;26.198;2023-08-31T04:48:42;9.70;;;8.05;;
9248;SDS011;4660;41.768;26.198;2023-08-31T04:51:09;11.18;;;8.15;;
9248;SDS011;4660;41.768;26.198;2023-08-31T04:53:52;9.30;;;6.85;;
9248;SDS011;4660;41.768;26.198;2023-08-31T04:56:18;11.15;;;8.63;;
9248;SDS011;4660;41.768;26.198;2023-08-31T04:58:43;11.73;;;7.28;;
9248;SDS011;4660;41.768;26.198;2023-08-31T05:01:09;14.07;;;8.45;;
9248;SDS011;4660;41.768;26.198;2023-08-31T05:03:34;13.68;;;6.93;;
9248;SDS011;4660;41.768;26.198;2023-08-31T05:06:00;10.43;;;7.07;;
9248;SDS011;4660;41.768;26.198;2023-08-31T05:08:26;14.55;;;7.05;;
9248;SDS011;4660;41.768;26.198;2023-08-31T05:10:51;10.50;;;6.55;;
9248;SDS011;4660;41.768;26.198;2023-08-31T05:13:17;8.73;;;6.75;;
9248;SDS011;4660;41.768;26.198;2023-08-31T05:15:42;7.03;;;5.93;;
9248;SDS011;4660;41.768;26.198;2023-08-31T05:18:08;8.02;;;6.30;;
9248;SDS011;4660;41.768;26.198;2023-08-31T05:20:34;11.93;;;6.38;;
9248;SDS011;4660;41.768;26.198;2023-08-31T05:22:59;8.23;;;6.13;;
9248;SDS011;4660;41.768;26.198;2023-08-31T05:25:25;7.90;;;6.25;;
9248;SDS011;4660;41.768;26.198;2023-08-31T05:27:51;8.77;;;6.32;;
9248;SDS011;4660;41.768;26.198;2023-08-31T05:30:20;8.43;;;5.72;;
9248;SDS011;4660;41.768;26.198;2023-08-31T05:33:00;8.93;;;5.90;;
9248;SDS011;4660;41.768;26.198;2023-08-31T05:35:31;7.22;;;5.57;;
9248;SDS011;4660;41.768;26.198;2023-08-31T05:37:57;6.35;;;4.47;;
9248;SDS011;4660;41.768;26.198;2023-08-31T05:40:22;7.68;;;4.63;;
9248;SDS011;4660;41.768;26.198;2023-08-31T05:42:48;6.70;;;5.13;;
9248;SDS011;4660;41.768;26.198;2023-08-31T05:45:14;5.65;;;5.07;;
9248;SDS011;4660;41.768;26.198;2023-08-31T05:47:42;8.18;;;4.75;;
9248;SDS011;4660;41.768;26.198;2023-08-31T05:50:08;5.80;;;4.90;;
9248;SDS011;4660;41.768;26.198;2023-08-31T05:52:34;5.60;;;4.05;;
9248;SDS011;4660;41.768;26.198;2023-08-31T05:54:59;8.77;;;4.65;;
9248;SDS011;4660;41.768;26.198;2023-08-31T05:57:25;8.35;;;4.78;;
9248;SDS011;4660;41.768;26.198;2023-08-31T05:59:52;6.93;;;4.00;;
9248;SDS011;4660;41.768;26.198;2023-08-31T06:02:18;5.35;;;3.75;;
9248;SDS011;4660;41.768;26.198;2023-08-31T06:04:47;6.28;;;3.65;;
9248;SDS011;4660;41.768;26.198;2023-08-31T06:07:39;5.93;;;4.03;;
9248;SDS011;4660;41.768;26.198;2023-08-31T06:10:05;6.55;;;3.35;;
9248;SDS011;4660;41.768;26.198;2023-08-31T06:12:31;6.10;;;3.45;;
9248;SDS011;4660;41.768;26.198;2023-08-31T06:14:56;4.63;;;3.20;;
9248;SDS011;4660;41.768;26.198;2023-08-31T06:17:22;4.35;;;3.47;;
9248;SDS011;4660;41.768;26.198;2023-08-31T06:19:47;5.40;;;3.28;;
9248;SDS011;4660;41.768;26.198;2023-08-31T06:22:13;6.60;;;3.28;;
9248;SDS011;4660;41.768;26.198;2023-08-31T06:24:41;4.70;;;4.03;;
9248;SDS011;4660;41.768;26.198;2023-08-31T06:27:07;8.75;;;3.92;;
9248;SDS011;4660;41.768;26.198;2023-08-31T06:29:33;5.78;;;3.45;;
9248;SDS011;4660;41.768;26.198;2023-08-31T06:32:14;12.40;;;3.42;;
9248;SDS011;4660;41.768;26.198;2023-08-31T06:34:41;6.53;;;4.10;;
9248;SDS011;4660;41.768;26.198;2023-08-31T06:37:06;5.38;;;3.10;;
9248;SDS011;4660;41.768;26.198;2023-08-31T06:39:32;5.43;;;3.45;;
9248;SDS011;4660;41.768;26.198;2023-08-31T06:41:58;5.80;;;3.53;;
9248;SDS011;4660;41.768;26.198;2023-08-31T06:44:24;8.07;;;3.78;;
9248;SDS011;4660;41.768;26.198;2023-08-31T06:46:49;4.32;;;3.47;;
9248;SDS011;4660;41.768;26.198;2023-08-31T06:49:24;5.78;;;3.20;;
9248;SDS011;4660;41.768;26.198;2023-08-31T06:51:49;4.68;;;3.45;;
9248;SDS011;4660;41.768;26.198;2023-08-31T06:54:15;3.78;;;3.40;;
9248;SDS011;4660;41.768;26.198;2023-08-31T06:56:41;4.75;;;3.30;;
9248;SDS011;4660;41.768;26.198;2023-08-31T06:59:07;5.47;;;3.65;;
9248;SDS011;4660;41.768;26.198;2023-08-31T07:01:32;7.70;;;3.47;;
9248;SDS011;4660;41.768;26.198;2023-08-31T07:03:58;7.95;;;3.38;;
9248;SDS011;4660;41.768;26.198;2023-08-31T07:06:24;7.55;;;4.15;;
9248;SDS011;4660;41.768;26.198;2023-08-31T07:08:50;8.13;;;4.07;;
9248;SDS011;4660;41.768;26.198;2023-08-31T07:11:16;9.82;;;4.30;;
9248;SDS011;4660;41.768;26.198;2023-08-31T07:13:42;8.75;;;4.43;;
9248;SDS011;4660;41.768;26.198;2023-08-31T07:16:07;5.90;;;3.88;;
9248;SDS011;4660;41.768;26.198;2023-08-31T07:18:34;4.70;;;3.83;;
9248;SDS011;4660;41.768;26.198;2023-08-31T07:21:01;8.77;;;3.88;;
9248;SDS011;4660;41.768;26.198;2023-08-31T07:23:27;5.47;;;3.58;;
9248;SDS011;4660;41.768;26.198;2023-08-31T07:25:56;9.65;;;4.10;;
9248;SDS011;4660;41.768;26.198;2023-08-31T07:28:23;9.48;;;3.60;;
9248;SDS011;4660;41.768;26.198;2023-08-31T07:30:49;5.57;;;3.42;;
9248;SDS011;4660;41.768;26.198;2023-08-31T07:33:14;5.65;;;3.90;;
9248;SDS011;4660;41.768;26.198;2023-08-31T07:35:40;7.80;;;3.80;;
9248;SDS011;4660;41.768;26.198;2023-08-31T07:38:05;5.40;;;3.40;;
9248;SDS011;4660;41.768;26.198;2023-08-31T07:40:31;7.45;;;3.55;;
9248;SDS011;4660;41.768;26.198;2023-08-31T07:42:56;6.88;;;3.60;;
9248;SDS011;4660;41.768;26.198;2023-08-31T07:45:22;4.60;;;3.40;;
9248;SDS011;4660;41.768;26.198;2023-08-31T07:47:47;5.45;;;3.78;;
9248;SDS011;4660;41.768;26.198;2023-08-31T07:50:14;7.93;;;3.83;;
9248;SDS011;4660;41.768;26.198;2023-08-31T07:52:39;5.05;;;3.67;;
9248;SDS011;4660;41.768;26.198;2023-08-31T07:55:05;6.90;;;3.67;;
9248;SDS011;4660;41.768;26.198;2023-08-31T07:57:31;6.63;;;3.22;;
9248;SDS011;4660;41.768;26.198;2023-08-31T07:59:57;6.32;;;3.47;;
9248;SDS011;4660;41.768;26.198;2023-08-31T08:02:22;4.50;;;3.85;;
9248;SDS011;4660;41.768;26.198;2023-08-31T08:04:47;6.95;;;3.58;;
9248;SDS011;4660;41.768;26.198;2023-08-31T08:07:13;8.25;;;4.18;;
9248;SDS011;4660;41.768;26.198;2023-08-31T08:09:39;4.50;;;3.53;;
9248;SDS011;4660;41.768;26.198;2023-08-31T08:12:05;12.68;;;3.58;;
9248;SDS011;4660;41.768;26.198;2023-08-31T08:14:30;4.95;;;3.63;;
9248;SDS011;4660;41.768;26.198;2023-08-31T08:16:56;4.68;;;3.33;;
9248;SDS011;4660;41.768;26.198;2023-08-31T08:19:24;6.82;;;4.28;;
9248;SDS011;4660;41.768;26.198;2023-08-31T08:21:50;5.65;;;3.35;;
9248;SDS011;4660;41.768;26.198;2023-08-31T08:24:16;4.43;;;3.65;;
9248;SDS011;4660;41.768;26.198;2023-08-31T08:26:42;8.20;;;3.97;;
9248;SDS011;4660;41.768;26.198;2023-08-31T08:29:08;3.75;;;3.25;;
9248;SDS011;4660;41.768;26.198;2023-08-31T08:31:34;5.72;;;3.78;;
9248;SDS011;4660;41.768;26.198;2023-08-31T08:34:00;5.07;;;3.42;;
9248;SDS011;4660;41.768;26.198;2023-08-31T08:36:26;5.90;;;4.15;;
9248;SDS011;4660;41.768;26.198;2023-08-31T08:38:52;4.35;;;3.58;;
9248;SDS011;4660;41.768;26.198;2023-08-31T08:41:18;5.28;;;3.67;;
9248;SDS011;4660;41.768;26.198;2023-08-31T08:43:49;6.88;;;3.45;;
9248;SDS011;4660;41.768;26.198;2023-08-31T08:46:16;5.22;;;3.88;;
9248;SDS011;4660;41.768;26.198;2023-08-31T08:48:43;7.35;;;3.72;;
9248;SDS011;4660;41.768;26.198;2023-08-31T08:51:10;5.32;;;3.53;;
9248;SDS011;4660;41.768;26.198;2023-08-31T08:53:36;8.50;;;3.75;;
9248;SDS011;4660;41.768;26.198;2023-08-31T08:56:04;5.38;;;3.80;;
9248;SDS011;4660;41.768;26.198;2023-08-31T08:58:29;13.45;;;4.10;;
9248;SDS011;4660;41.768;26.198;2023-08-31T09:00:55;7.57;;;4.20;;
9248;SDS011;4660;41.768;26.198;2023-08-31T09:03:23;4.63;;;3.67;;
9248;SDS011;4660;41.768;26.198;2023-08-31T09:05:50;7.38;;;3.90;;
9248;SDS011;4660;41.768;26.198;2023-08-31T09:08:17;4.65;;;3.47;;
9248;SDS011;4660;41.768;26.198;2023-08-31T09:10:50;10.25;;;3.95;;
9248;SDS011;4660;41.768;26.198;2023-08-31T09:13:15;8.75;;;4.53;;
9248;SDS011;4660;41.768;26.198;2023-08-31T09:15:42;6.78;;;3.80;;
9248;SDS011;4660;41.768;26.198;2023-08-31T09:20:47;4.90;;;3.90;;
9248;SDS011;4660;41.768;26.198;2023-08-31T09:23:13;5.65;;;4.07;;
9248;SDS011;4660;41.768;26.198;2023-08-31T09:25:44;5.50;;;3.70;;
9248;SDS011;4660;41.768;26.198;2023-08-31T09:28:14;6.63;;;4.20;;
9248;SDS011;4660;41.768;26.198;2023-08-31T09:30:48;4.72;;;3.72;;
9248;SDS011;4660;41.768;26.198;2023-08-31T09:33:15;5.55;;;4.07;;
9248;SDS011;4660;41.768;26.198;2023-08-31T09:35:50;6.00;;;3.45;;
9248;SDS011;4660;41.768;26.198;2023-08-31T09:38:17;6.03;;;3.85;;
9248;SDS011;4660;41.768;26.198;2023-08-31T09:40:43;5.47;;;3.78;;
9248;SDS011;4660;41.768;26.198;2023-08-31T09:43:09;4.78;;;3.72;;
9248;SDS011;4660;41.768;26.198;2023-08-31T09:45:34;6.18;;;4.07;;
9248;SDS011;4660;41.768;26.198;2023-08-31T09:48:02;7.70;;;4.10;;
9248;SDS011;4660;41.768;26.198;2023-08-31T09:50:32;6.07;;;3.80;;
9248;SDS011;4660;41.768;26.198;2023-08-31T09:53:03;5.45;;;3.83;;
9248;SDS011;4660;41.768;26.198;2023-08-31T09:55:31;6.32;;;4.03;;
9248;SDS011;4660;41.768;26.198;2023-08-31T09:57:59;6.00;;;3.92;;
9248;SDS011;4660;41.768;26.198;2023-08-31T10:00:27;7.32;;;4.47;;
9248;SDS011;4660;41.768;26.198;2023-08-31T10:02:55;4.60;;;3.53;;
9248;SDS011;4660;41.768;26.198;2023-08-31T10:05:29;9.05;;;4.45;;
9248;SDS011;4660;41.768;26.198;2023-08-31T10:07:56;6.63;;;3.85;;
9248;SDS011;4660;41.768;26.198;2023-08-31T10:10:22;6.07;;;3.88;;
9248;SDS011;4660;41.768;26.198;2023-08-31T10:12:49;7.18;;;4.03;;
9248;SDS011;4660;41.768;26.198;2023-08-31T10:15:17;5.10;;;4.05;;
9248;SDS011;4660;41.768;26.198;2023-08-31T10:17:43;4.57;;;4.18;;
9248;SDS011;4660;41.768;26.198;2023-08-31T10:20:10;6.15;;;3.53;;
9248;SDS011;4660;41.768;26.198;2023-08-31T10:22:38;4.65;;;3.72;;
9248;SDS011;4660;41.768;26.198;2023-08-31T10:25:04;5.43;;;4.28;;
9248;SDS011;4660;41.768;26.198;2023-08-31T10:27:38;10.15;;;4.55;;
9248;SDS011;4660;41.768;26.198;2023-08-31T10:36:08;6.18;;;4.32;;
9248;SDS011;4660;41.768;26.198;2023-08-31T10:38:28;8.07;;;4.63;;
9248;SDS011;4660;41.768;26.198;2023-08-31T10:51:24;5.63;;;4.03;;
9248;SDS011;4660;41.768;26.198;2023-08-31T10:53:51;8.50;;;3.88;;
9248;SDS011;4660;41.768;26.198;2023-08-31T10:56:20;5.22;;;3.83;;
9248;SDS011;4660;41.768;26.198;2023-08-31T10:58:57;5.55;;;3.67;;
9248;SDS011;4660;41.768;26.198;2023-08-31T11:04:21;4.43;;;3.85;;
9248;SDS011;4660;41.768;26.198;2023-08-31T11:07:16;4.25;;;3.70;;
9248;SDS011;4660;41.768;26.198;2023-08-31T11:09:47;5.18;;;4.00;;
9248;SDS011;4660;41.768;26.198;2023-08-31T11:12:13;6.85;;;4.00;;
9248;SDS011;4660;41.768;26.198;2023-08-31T11:14:40;5.30;;;3.80;;
9248;SDS011;4660;41.768;26.198;2023-08-31T11:17:06;5.93;;;3.60;;
9248;SDS011;4660;41.768;26.198;2023-08-31T11:19:32;10.55;;;4.22;;
9248;SDS011;4660;41.768;26.198;2023-08-31T11:22:02;5.00;;;4.03;;
9248;SDS011;4660;41.768;26.198;2023-08-31T11:24:29;4.50;;;4.05;;
9248;SDS011;4660;41.768;26.198;2023-08-31T11:26:56;8.65;;;3.85;;
9248;SDS011;4660;41.768;26.198;2023-08-31T11:29:21;5.30;;;3.55;;
9248;SDS011;4660;41.768;26.198;2023-08-31T11:31:47;4.20;;;3.80;;
9248;SDS011;4660;41.768;26.198;2023-08-31T11:34:13;4.43;;;3.50;;
9248;SDS011;4660;41.768;26.198;2023-08-31T11:36:43;7.70;;;3.72;;
9248;SDS011;4660;41.768;26.198;2023-08-31T11:39:10;4.65;;;3.83;;
9248;SDS011;4660;41.768;26.198;2023-08-31T11:41:36;9.65;;;5.10;;
9248;SDS011;4660;41.768;26.198;2023-08-31T11:44:09;6.60;;;3.92;;
9248;SDS011;4660;41.768;26.198;2023-08-31T11:46:37;7.45;;;4.25;;
9248;SDS011;4660;41.768;26.198;2023-08-31T11:49:06;8.38;;;4.40;;
9248;SDS011;4660;41.768;26.198;2023-08-31T11:51:35;5.55;;;4.68;;
9248;SDS011;4660;41.768;26.198;2023-08-31T11:54:03;4.78;;;4.00;;
9248;SDS011;4660;41.768;26.198;2023-08-31T11:59:08;6.90;;;4.38;;
9248;SDS011;4660;41.768;26.198;2023-08-31T12:01:38;8.93;;;4.35;;
9248;SDS011;4660;41.768;26.198;2023-08-31T12:04:12;6.90;;;4.70;;
9248;SDS011;4660;41.768;26.198;2023-08-31T12:06:39;5.80;;;4.88;;
9248;SDS011;4660;41.768;26.198;2023-08-31T12:09:09;5.88;;;4.10;;
9248;SDS011;4660;41.768;26.198;2023-08-31T12:11:35;6.00;;;4.47;;
9248;SDS011;4660;41.768;26.198;2023-08-31T12:14:01;6.60;;;4.30;;
9248;SDS011;4660;41.768;26.198;2023-08-31T12:16:32;7.38;;;4.65;;
9248;SDS011;4660;41.768;26.198;2023-08-31T12:19:04;8.07;;;4.55;;
9248;SDS011;4660;41.768;26.198;2023-08-31T12:21:31;8.10;;;4.53;;
9248;SDS011;4660;41.768;26.198;2023-08-31T12:24:04;9.02;;;4.30;;
9248;SDS011;4660;41.768;26.198;2023-08-31T12:26:31;16.10;;;13.20;;
9248;SDS011;4660;41.768;26.198;2023-08-31T12:28:57;12.43;;;11.10;;
9248;SDS011;4660;41.768;26.198;2023-08-31T12:31:24;18.88;;;13.82;;
9248;SDS011;4660;41.768;26.198;2023-08-31T12:33:50;19.05;;;13.93;;
9248;SDS011;4660;41.768;26.198;2023-08-31T12:36:15;21.25;;;14.27;;
9248;SDS011;4660;41.768;26.198;2023-08-31T12:38:41;23.75;;;15.05;;
9248;SDS011;4660;41.768;26.198;2023-08-31T12:41:06;42.45;;;22.80;;
9248;SDS011;4660;41.768;26.198;2023-08-31T12:43:34;32.78;;;24.83;;
9248;SDS011;4660;41.768;26.198;2023-08-31T12:46:05;32.75;;;23.30;;
9248;SDS011;4660;41.768;26.198;2023-08-31T12:48:39;33.75;;;22.73;;
9248;SDS011;4660;41.768;26.198;2023-08-31T12:51:05;34.47;;;24.38;;
9248;SDS011;4660;41.768;26.198;2023-08-31T12:53:32;34.20;;;23.83;;
9248;SDS011;4660;41.768;26.198;2023-08-31T12:55:57;33.55;;;23.20;;
9248;SDS011;4660;41.768;26.198;2023-08-31T12:58:23;31.83;;;23.40;;
9248;SDS011;4660;41.768;26.198;2023-08-31T13:00:48;30.55;;;25.45;;
9248;SDS011;4660;41.768;26.198;2023-08-31T13:03:15;27.67;;;23.67;;
9248;SDS011;4660;41.768;26.198;2023-08-31T13:05:41;31.45;;;23.20;;
9248;SDS011;4660;41.768;26.198;2023-08-31T13:08:07;26.85;;;23.02;;
9248;SDS011;4660;41.768;26.198;2023-08-31T13:10:34;31.50;;;21.58;;
9248;SDS011;4660;41.768;26.198;2023-08-31T13:13:01;29.08;;;21.30;;
9248;SDS011;4660;41.768;26.198;2023-08-31T13:15:26;29.42;;;19.27;;
9248;SDS011;4660;41.768;26.198;2023-08-31T13:17:52;27.25;;;19.23;;
9248;SDS011;4660;41.768;26.198;2023-08-31T13:20:18;22.52;;;18.50;;
9248;SDS011;4660;41.768;26.198;2023-08-31T13:22:43;23.50;;;18.58;;
9248;SDS011;4660;41.768;26.198;2023-08-31T13:25:09;26.02;;;18.95;;
9248;SDS011;4660;41.768;26.198;2023-08-31T13:27:36;22.17;;;19.10;;
9248;SDS011;4660;41.768;26.198;2023-08-31T13:30:02;24.00;;;19.70;;
9248;SDS011;4660;41.768;26.198;2023-08-31T13:32:31;19.60;;;17.42;;
9248;SDS011;4660;41.768;26.198;2023-08-31T13:34:58;25.13;;;18.45;;
9248;SDS011;4660;41.768;26.198;2023-08-31T13:37:23;21.38;;;18.90;;
9248;SDS011;4660;41.768;26.198;2023-08-31T13:39:50;23.15;;;19.63;;
9248;SDS011;4660;41.768;26.198;2023-08-31T13:42:17;24.00;;;20.38;;
9248;SDS011;4660;41.768;26.198;2023-08-31T13:44:46;27.15;;;20.55;;
9248;SDS011;4660;41.768;26.198;2023-08-31T13:47:11;29.63;;;23.77;;
9248;SDS011;4660;41.768;26.198;2023-08-31T13:49:37;31.23;;;26.33;;
9248;SDS011;4660;41.768;26.198;2023-08-31T13:52:03;34.83;;;29.27;;
9248;SDS011;4660;41.768;26.198;2023-08-31T13:54:31;41.63;;;37.00;;
9248;SDS011;4660;41.768;26.198;2023-08-31T13:56:59;41.60;;;36.90;;
9248;SDS011;4660;41.768;26.198;2023-08-31T14:02:02;69.13;;;57.90;;
9248;SDS011;4660;41.768;26.198;2023-08-31T14:04:55;74.57;;;62.30;;
9248;SDS011;4660;41.768;26.198;2023-08-31T14:07:23;72.57;;;62.40;;
9248;SDS011;4660;41.768;26.198;2023-08-31T14:09:50;65.88;;;58.80;;
9248;SDS011;4660;41.768;26.198;2023-08-31T14:12:15;67.80;;;59.90;;
9248;SDS011;4660;41.768;26.198;2023-08-31T14:14:42;67.00;;;59.20;;
9248;SDS011;4660;41.768;26.198;2023-08-31T14:17:09;65.60;;;56.95;;
9248;SDS011;4660;41.768;26.198;2023-08-31T14:19:34;61.45;;;51.15;;
9248;SDS011;4660;41.768;26.198;2023-08-31T14:22:16;52.85;;;45.20;;
9248;SDS011;4660;41.768;26.198;2023-08-31T14:24:41;47.20;;;40.85;;
9248;SDS011;4660;41.768;26.198;2023-08-31T14:27:07;43.80;;;38.97;;
9248;SDS011;4660;41.768;26.198;2023-08-31T14:29:33;41.05;;;36.65;;
9248;SDS011;4660;41.768;26.198;2023-08-31T14:34:35;30.40;;;25.52;;
9248;SDS011;4660;41.768;26.198;2023-08-31T14:37:02;29.42;;;22.05;;
9248;SDS011;4660;41.768;26.198;2023-08-31T14:39:29;21.08;;;15.98;;
9248;SDS011;4660;41.768;26.198;2023-08-31T14:41:56;17.50;;;13.38;;
9248;SDS011;4660;41.768;26.198;2023-08-31T14:44:24;14.95;;;12.35;;
9248;SDS011;4660;41.768;26.198;2023-08-31T14:46:51;14.27;;;11.57;;
9248;SDS011;4660;41.768;26.198;2023-08-31T14:49:22;15.30;;;10.80;;
9248;SDS011;4660;41.768;26.198;2023-08-31T14:51:50;16.77;;;11.63;;
9248;SDS011;4660;41.768;26.198;2023-08-31T14:54:17;18.98;;;12.93;;
9248;SDS011;4660;41.768;26.198;2023-08-31T14:56:48;12.63;;;11.32;;
9248;SDS011;4660;41.768;26.198;2023-08-31T14:59:21;16.63;;;10.55;;
9248;SDS011;4660;41.768;26.198;2023-08-31T15:01:49;13.18;;;10.00;;
9248;SDS011;4660;41.768;26.198;2023-08-31T15:04:15;11.60;;;9.38;;
9248;SDS011;4660;41.768;26.198;2023-08-31T15:06:47;13.13;;;10.35;;
9248;SDS011;4660;41.768;26.198;2023-08-31T15:09:13;11.35;;;8.60;;
9248;SDS011;4660;41.768;26.198;2023-08-31T15:11:45;11.65;;;7.97;;
9248;SDS011;4660;41.768;26.198;2023-08-31T15:14:12;12.25;;;8.48;;
9248;SDS011;4660;41.768;26.198;2023-08-31T15:16:38;15.20;;;8.93;;
9248;SDS011;4660;41.768;26.198;2023-08-31T15:19:06;14.88;;;9.95;;
9248;SDS011;4660;41.768;26.198;2023-08-31T15:21:32;13.68;;;9.10;;
9248;SDS011;4660;41.768;26.198;2023-08-31T15:23:59;16.05;;;10.40;;
9248;SDS011;4660;41.768;26.198;2023-08-31T15:26:26;16.00;;;10.25;;
9248;SDS011;4660;41.768;26.198;2023-08-31T15:28:53;15.95;;;10.43;;
9248;SDS011;4660;41.768;26.198;2023-08-31T15:31:19;13.88;;;10.50;;
9248;SDS011;4660;41.768;26.198;2023-08-31T15:36:20;16.58;;;9.55;;
9248;SDS011;4660;41.768;26.198;2023-08-31T15:38:49;19.67;;;9.73;;
9248;SDS011;4660;41.768;26.198;2023-08-31T15:41:15;14.57;;;10.48;;